createdAt,value
2022-12-27T00:00:34.016Z,-21
2022-12-27T00:01:40.284Z,-21
2022-12-27T00:02:46.568Z,-21
2022-12-27T00:03:52.837Z,-21
2022-12-27T00:04:59.175Z,-22
2022-12-27T00:06:05.381Z,-21
2022-12-27T00:07:10.688Z,-21
2022-12-27T00:08:16.946Z,-21
2022-12-27T00:09:23.210Z,-21
2022-12-27T00:10:29.500Z,-22
2022-12-27T00:11:35.797Z,-21
2022-12-27T00:12:42.025Z,-21
2022-12-27T00:13:48.304Z,-21
2022-12-27T00:14:53.593Z,-21
2022-12-27T00:15:58.884Z,-21
2022-12-27T00:17:04.190Z,-24
2022-12-27T00:18:09.482Z,-22
2022-12-27T00:19:15.740Z,-21
2022-12-27T00:20:22.051Z,-24
2022-12-27T00:21:28.294Z,-21
2022-12-27T00:22:34.557Z,-21
2022-12-27T00:23:40.896Z,-21
2022-12-27T00:24:47.105Z,-22
2022-12-27T00:25:53.379Z,-23
2022-12-27T00:26:59.647Z,-21
2022-12-27T00:28:05.961Z,-22
2022-12-27T00:29:12.235Z,-21
2022-12-27T00:30:18.484Z,-21
2022-12-27T00:31:24.748Z,-21
2022-12-27T00:32:30.019Z,-21
2022-12-27T00:33:36.321Z,-21
2022-12-27T00:34:42.580Z,-21
2022-12-27T00:35:48.841Z,-21
2022-12-27T00:36:55.118Z,-21
2022-12-27T00:38:01.479Z,-24
2022-12-27T00:39:07.659Z,-22
2022-12-27T00:40:12.960Z,-21
2022-12-27T00:41:18.245Z,-21
2022-12-27T00:42:23.541Z,-21
2022-12-27T00:43:28.834Z,-22
2022-12-27T00:44:35.122Z,-21
2022-12-27T00:45:41.374Z,-21
2022-12-27T00:46:47.643Z,-21
2022-12-27T00:47:54.027Z,-22
2022-12-27T00:49:00.194Z,-21
2022-12-27T00:50:06.462Z,-22
2022-12-27T00:51:12.788Z,-22
2022-12-27T00:52:19.003Z,-23
2022-12-27T00:53:25.285Z,-22
2022-12-27T00:54:31.563Z,-23
2022-12-27T00:55:37.879Z,-23
2022-12-27T00:56:44.097Z,-25
2022-12-27T00:57:49.383Z,-21
2022-12-27T00:58:55.666Z,-22
2022-12-27T01:00:01.926Z,-24
2022-12-27T01:01:08.203Z,-24
2022-12-27T01:02:14.480Z,-22
2022-12-27T01:03:20.772Z,-25
2022-12-27T01:04:27.017Z,-22
2022-12-27T01:05:32.322Z,-22
2022-12-27T01:06:37.611Z,-22
2022-12-27T01:07:42.907Z,-21
2022-12-27T01:08:48.188Z,-25
2022-12-27T01:09:54.463Z,-24
2022-12-27T01:11:00.744Z,-23
2022-12-27T01:12:07.013Z,-23
2022-12-27T01:13:13.283Z,-25
2022-12-27T01:14:19.556Z,-23
2022-12-27T01:15:25.827Z,-23
2022-12-27T01:16:32.109Z,-23
2022-12-27T01:17:38.479Z,-22
2022-12-27T01:18:44.637Z,-24
2022-12-27T01:19:50.905Z,-23
2022-12-27T01:20:57.218Z,-23
2022-12-27T01:22:03.476Z,-23
2022-12-27T01:23:08.747Z,-21
2022-12-27T01:24:15.033Z,-23
2022-12-27T01:25:21.295Z,-21
2022-12-27T01:26:27.657Z,-22
2022-12-27T01:27:33.831Z,-22
2022-12-27T01:28:40.098Z,-21
2022-12-27T01:29:46.378Z,-23
2022-12-27T01:30:51.673Z,-23
2022-12-27T01:31:56.960Z,-23
2022-12-27T01:33:02.257Z,-24
2022-12-27T01:34:07.550Z,-22
2022-12-27T01:35:13.854Z,-23
2022-12-27T01:36:20.103Z,-23
2022-12-27T01:37:26.364Z,-23
2022-12-27T01:38:32.661Z,-22
2022-12-27T01:39:39.044Z,-24
2022-12-27T01:40:45.180Z,-23
2022-12-27T01:41:51.455Z,-22
2022-12-27T01:42:57.759Z,-24
2022-12-27T01:44:03.998Z,-22
2022-12-27T01:45:10.274Z,-24
2022-12-27T01:46:16.537Z,-23
2022-12-27T01:47:22.878Z,-24
2022-12-27T01:48:28.147Z,-24
2022-12-27T01:49:34.396Z,-25
2022-12-27T01:50:40.645Z,-25
2022-12-27T01:51:46.923Z,-24
2022-12-27T01:52:53.200Z,-23
2022-12-27T01:53:59.486Z,-24
2022-12-27T01:55:05.743Z,-23
2022-12-27T01:56:11.034Z,-23
2022-12-27T01:57:16.337Z,-23
2022-12-27T01:58:21.638Z,-25
2022-12-27T01:59:26.911Z,-25
2022-12-27T02:00:33.182Z,-24
2022-12-27T02:01:39.452Z,-23
2022-12-27T02:02:45.729Z,-24
2022-12-27T02:03:51.998Z,-25
2022-12-27T02:04:58.281Z,-25
2022-12-27T02:06:04.564Z,-25
2022-12-27T02:07:10.853Z,-24
2022-12-27T02:08:17.086Z,-25
2022-12-27T02:09:23.357Z,-25
2022-12-27T02:10:29.631Z,-26
2022-12-27T02:11:35.921Z,-25
2022-12-27T02:12:42.166Z,-25
2022-12-27T02:13:47.516Z,-25
2022-12-27T02:14:53.736Z,-24
2022-12-27T02:16:00.000Z,-25
2022-12-27T02:17:06.271Z,-25
2022-12-27T02:18:12.547Z,-25
2022-12-27T02:19:18.819Z,-25
2022-12-27T02:20:25.110Z,-24
2022-12-27T02:21:30.457Z,-25
2022-12-27T02:22:35.680Z,-25
2022-12-27T02:23:40.976Z,-25
2022-12-27T02:24:46.265Z,-25
2022-12-27T02:25:52.534Z,-24
2022-12-27T02:26:58.815Z,-25
2022-12-27T02:28:05.086Z,-25
2022-12-27T02:29:11.355Z,-25
2022-12-27T02:30:17.635Z,-25
2022-12-27T02:31:23.902Z,-25
2022-12-27T02:32:30.177Z,-25
2022-12-27T02:33:36.454Z,-25
2022-12-27T02:34:42.724Z,-24
2022-12-27T02:35:49.018Z,-25
2022-12-27T02:36:55.256Z,-25
2022-12-27T02:38:01.527Z,-25
2022-12-27T02:39:06.870Z,-25
2022-12-27T02:40:13.089Z,-26
2022-12-27T02:41:19.390Z,-24
2022-12-27T02:42:25.644Z,-27
2022-12-27T02:43:31.930Z,-25
2022-12-27T02:44:38.186Z,-25
2022-12-27T02:45:44.452Z,-26
2022-12-27T02:46:49.770Z,-25
2022-12-27T02:47:55.040Z,-25
2022-12-27T02:49:01.321Z,-25
2022-12-27T02:50:06.690Z,-25
2022-12-27T02:51:11.906Z,-25
2022-12-27T02:52:18.168Z,-25
2022-12-27T02:53:24.442Z,-25
2022-12-27T02:54:30.729Z,-25
2022-12-27T02:55:36.980Z,-25
2022-12-27T02:56:43.253Z,-25
2022-12-27T02:57:49.535Z,-25
2022-12-27T02:58:55.801Z,-25
2022-12-27T03:00:02.075Z,-25
2022-12-27T03:01:07.373Z,-26
2022-12-27T03:02:13.637Z,-25
2022-12-27T03:03:19.935Z,-26
2022-12-27T03:04:26.186Z,-25
2022-12-27T03:05:32.468Z,-26
2022-12-27T03:06:38.727Z,-25
2022-12-27T03:07:44.998Z,-25
2022-12-27T03:08:51.266Z,-26
2022-12-27T03:09:57.548Z,-26
2022-12-27T03:11:03.826Z,-26
2022-12-27T03:12:10.082Z,-26
2022-12-27T03:13:15.384Z,-26
2022-12-27T03:14:20.689Z,-27
2022-12-27T03:15:25.988Z,-27
2022-12-27T03:16:31.266Z,-26
2022-12-27T03:17:37.534Z,-26
2022-12-27T03:18:43.808Z,-25
2022-12-27T03:19:50.079Z,-25
2022-12-27T03:20:56.356Z,-25
2022-12-27T03:22:02.635Z,-26
2022-12-27T03:23:08.908Z,-26
2022-12-27T03:24:15.165Z,-25
2022-12-27T03:25:21.436Z,-27
2022-12-27T03:26:27.709Z,-26
2022-12-27T03:27:33.995Z,-27
2022-12-27T03:28:40.253Z,-26
2022-12-27T03:29:46.529Z,-27
2022-12-27T03:30:51.817Z,-28
2022-12-27T03:31:58.090Z,-28
2022-12-27T03:33:04.360Z,-26
2022-12-27T03:34:10.626Z,-25
2022-12-27T03:35:16.904Z,-26
2022-12-27T03:36:23.178Z,-26
2022-12-27T03:37:29.452Z,-26
2022-12-27T03:38:34.749Z,-27
2022-12-27T03:39:40.041Z,-27
2022-12-27T03:40:45.334Z,-26
2022-12-27T03:41:50.633Z,-28
2022-12-27T03:42:56.904Z,-28
2022-12-27T03:44:03.164Z,-28
2022-12-27T03:45:09.437Z,-28
2022-12-27T03:46:15.709Z,-27
2022-12-27T03:47:21.982Z,-27
2022-12-27T03:48:28.250Z,-26
2022-12-27T03:49:34.528Z,-27
2022-12-27T03:50:40.795Z,-27
2022-12-27T03:51:47.084Z,-27
2022-12-27T03:52:53.340Z,-26
2022-12-27T03:53:59.655Z,-27
2022-12-27T03:55:05.897Z,-26
2022-12-27T03:56:11.288Z,-28
2022-12-27T03:57:17.455Z,-26
2022-12-27T03:58:23.722Z,-27
2022-12-27T03:59:29.994Z,-27
2022-12-27T04:00:36.261Z,-26
2022-12-27T04:01:42.536Z,-27
2022-12-27T04:02:48.826Z,-27
2022-12-27T04:03:54.116Z,-25
2022-12-27T04:04:59.397Z,-25
2022-12-27T04:06:04.714Z,-27
2022-12-27T04:07:09.986Z,-27
2022-12-27T04:08:16.257Z,-27
2022-12-27T04:09:22.525Z,-26
2022-12-27T04:10:28.803Z,-26
2022-12-27T04:11:35.079Z,-27
2022-12-27T04:12:41.346Z,-26
2022-12-27T04:13:47.624Z,-26
2022-12-27T04:14:53.883Z,-26
2022-12-27T04:16:00.162Z,-27
2022-12-27T04:17:06.421Z,-26
2022-12-27T04:18:12.704Z,-26
2022-12-27T04:19:18.981Z,-27
2022-12-27T04:20:25.251Z,-26
2022-12-27T04:21:30.535Z,-26
2022-12-27T04:22:36.809Z,-27
2022-12-27T04:23:43.096Z,-27
2022-12-27T04:24:49.360Z,-28
2022-12-27T04:25:55.633Z,-27
2022-12-27T04:27:01.905Z,-27
2022-12-27T04:28:08.167Z,-27
2022-12-27T04:29:13.471Z,-27
2022-12-27T04:30:18.758Z,-28
2022-12-27T04:31:24.055Z,-28
2022-12-27T04:32:29.340Z,-27
2022-12-27T04:33:35.611Z,-25
2022-12-27T04:34:41.893Z,-26
2022-12-27T04:35:48.175Z,-27
2022-12-27T04:36:54.434Z,-26
2022-12-27T04:38:00.699Z,-27
2022-12-27T04:39:06.983Z,-26
2022-12-27T04:40:13.247Z,-27
2022-12-27T04:41:19.562Z,-25
2022-12-27T04:42:25.794Z,-26
2022-12-27T04:43:32.069Z,-25
2022-12-27T04:44:38.339Z,-26
2022-12-27T04:45:44.610Z,-27
2022-12-27T04:46:49.892Z,-26
2022-12-27T04:47:56.175Z,-26
2022-12-27T04:49:02.442Z,-27
2022-12-27T04:50:08.739Z,-26
2022-12-27T04:51:14.988Z,-26
2022-12-27T04:52:21.258Z,-28
2022-12-27T04:53:27.534Z,-28
2022-12-27T04:54:32.832Z,-27
2022-12-27T04:55:38.230Z,-26
2022-12-27T04:56:43.421Z,-26
2022-12-27T04:57:48.700Z,-25
2022-12-27T04:58:54.979Z,-25
2022-12-27T05:00:01.261Z,-26
2022-12-27T05:01:07.540Z,-26
2022-12-27T05:02:13.808Z,-26
2022-12-27T05:03:20.076Z,-25
2022-12-27T05:04:26.344Z,-26
2022-12-27T05:05:32.619Z,-25
2022-12-27T05:06:38.891Z,-26
2022-12-27T05:07:45.159Z,-24
2022-12-27T05:08:51.432Z,-26
2022-12-27T05:09:57.700Z,-25
2022-12-27T05:11:03.989Z,-26
2022-12-27T05:12:09.260Z,-25
2022-12-27T05:13:15.535Z,-25
2022-12-27T05:14:21.809Z,-25
2022-12-27T05:15:28.093Z,-26
2022-12-27T05:16:34.352Z,-25
2022-12-27T05:17:40.625Z,-25
2022-12-27T05:18:46.888Z,-25
2022-12-27T05:19:52.194Z,-25
2022-12-27T05:20:57.484Z,-26
2022-12-27T05:22:02.790Z,-26
2022-12-27T05:23:09.058Z,-26
2022-12-27T05:24:14.357Z,-25
2022-12-27T05:25:20.615Z,-27
2022-12-27T05:26:26.912Z,-26
2022-12-27T05:27:33.169Z,-24
2022-12-27T05:28:39.454Z,-27
2022-12-27T05:29:45.738Z,-26
2022-12-27T05:30:52.029Z,-26
2022-12-27T05:31:58.346Z,-26
2022-12-27T05:33:04.518Z,-25
2022-12-27T05:34:10.805Z,-27
2022-12-27T05:35:17.184Z,-26
2022-12-27T05:36:23.335Z,-26
2022-12-27T05:37:29.627Z,-26
2022-12-27T05:38:34.887Z,-26
2022-12-27T05:39:41.178Z,-27
2022-12-27T05:40:47.443Z,-25
2022-12-27T05:41:53.738Z,-25
2022-12-27T05:43:00.074Z,-25
2022-12-27T05:44:06.304Z,-25
2022-12-27T05:45:11.609Z,-27
2022-12-27T05:46:16.904Z,-27
2022-12-27T05:47:23.215Z,-25
2022-12-27T05:48:29.398Z,-26
2022-12-27T05:49:35.757Z,-26
2022-12-27T05:50:41.988Z,-26
2022-12-27T05:51:48.206Z,-28
2022-12-27T05:52:54.552Z,-26
2022-12-27T05:54:00.808Z,-27
2022-12-27T05:55:07.173Z,-26
2022-12-27T05:56:13.323Z,-26
2022-12-27T05:57:19.708Z,-26
2022-12-27T05:58:25.900Z,-28
2022-12-27T05:59:32.269Z,-26
2022-12-27T06:00:37.417Z,-26
2022-12-27T06:01:43.827Z,-25
2022-12-27T06:02:50.063Z,-26
2022-12-27T06:03:56.296Z,-28
2022-12-27T06:05:02.534Z,-23
2022-12-27T06:06:08.816Z,-25
2022-12-27T06:07:15.068Z,-25
2022-12-27T06:08:20.380Z,-25
2022-12-27T06:09:25.627Z,-26
2022-12-27T06:10:31.903Z,-26
2022-12-27T06:11:38.240Z,-25
2022-12-27T06:12:44.443Z,-26
2022-12-27T06:13:50.719Z,-26
2022-12-27T06:14:56.992Z,-27
2022-12-27T06:16:03.262Z,-25
2022-12-27T06:17:09.535Z,-25
2022-12-27T06:18:15.818Z,-27
2022-12-27T06:19:22.213Z,-25
2022-12-27T06:20:28.410Z,-27
2022-12-27T06:21:34.708Z,-27
2022-12-27T06:22:40.968Z,-27
2022-12-27T06:23:46.264Z,-26
2022-12-27T06:24:52.469Z,-27
2022-12-27T06:25:58.740Z,-25
2022-12-27T06:27:04.993Z,-25
2022-12-27T06:28:11.276Z,-27
2022-12-27T06:29:17.604Z,-26
2022-12-27T06:30:23.864Z,-26
2022-12-27T06:31:29.171Z,-26
2022-12-27T06:32:34.436Z,-26
2022-12-27T06:33:39.793Z,-25
2022-12-27T06:34:45.020Z,-25
2022-12-27T06:35:50.327Z,-26
2022-12-27T06:36:55.587Z,-27
2022-12-27T06:38:01.900Z,-27
2022-12-27T06:39:08.159Z,-27
2022-12-27T06:40:14.478Z,-26
2022-12-27T06:41:20.730Z,-26
2022-12-27T06:42:25.978Z,-26
2022-12-27T06:43:32.230Z,-25
2022-12-27T06:44:38.508Z,-26
2022-12-27T06:45:44.823Z,-25
2022-12-27T06:46:51.189Z,-26
2022-12-27T06:47:57.430Z,-26
2022-12-27T06:49:03.605Z,-25
2022-12-27T06:50:09.882Z,-26
2022-12-27T06:51:16.154Z,-27
2022-12-27T06:52:22.493Z,-26
2022-12-27T06:53:28.673Z,-25
2022-12-27T06:54:35.034Z,-26
2022-12-27T06:55:41.245Z,-26
2022-12-27T06:56:46.608Z,-26
2022-12-27T06:57:52.782Z,-26
2022-12-27T06:58:58.109Z,-27
2022-12-27T07:00:03.375Z,-26
2022-12-27T07:01:08.676Z,-27
2022-12-27T07:02:14.080Z,-27
2022-12-27T07:03:19.368Z,-25
2022-12-27T07:04:24.666Z,-25
2022-12-27T07:05:30.821Z,-25
2022-12-27T07:06:37.174Z,-25
2022-12-27T07:07:43.445Z,-26
2022-12-27T07:08:49.672Z,-26
2022-12-27T07:09:55.910Z,-27
2022-12-27T07:11:02.261Z,-25
2022-12-27T07:12:08.464Z,-25
2022-12-27T07:13:14.748Z,-24
2022-12-27T07:14:21.011Z,-26
2022-12-27T07:15:27.311Z,-23
2022-12-27T07:16:33.550Z,-25
2022-12-27T07:17:39.859Z,-26
2022-12-27T07:18:45.104Z,-25
2022-12-27T07:19:51.420Z,-26
2022-12-27T07:20:57.644Z,-25
2022-12-27T07:22:03.970Z,-25
2022-12-27T07:23:10.207Z,-26
2022-12-27T07:24:16.482Z,-25
2022-12-27T07:25:22.758Z,-27
2022-12-27T07:26:28.070Z,-25
2022-12-27T07:27:33.369Z,-25
2022-12-27T07:28:39.659Z,-25
2022-12-27T07:29:44.906Z,-25
2022-12-27T07:30:50.190Z,-26
2022-12-27T07:31:56.469Z,-25
2022-12-27T07:33:02.780Z,-27
2022-12-27T07:34:09.128Z,-26
2022-12-27T07:35:15.282Z,-27
2022-12-27T07:36:21.553Z,-25
2022-12-27T07:37:27.819Z,-25
2022-12-27T07:38:34.094Z,-25
2022-12-27T07:39:40.396Z,-25
2022-12-27T07:40:46.635Z,-25
2022-12-27T07:41:52.910Z,-25
2022-12-27T07:42:59.182Z,-27
2022-12-27T07:44:05.534Z,-25
2022-12-27T07:45:10.745Z,-26
2022-12-27T07:46:17.010Z,-25
2022-12-27T07:47:23.325Z,-25
2022-12-27T07:48:29.557Z,-25
2022-12-27T07:49:35.840Z,-24
2022-12-27T07:50:42.100Z,-25
2022-12-27T07:51:48.425Z,-25
2022-12-27T07:52:53.676Z,-25
2022-12-27T07:53:58.989Z,-24
2022-12-27T07:55:04.261Z,-24
2022-12-27T07:56:09.567Z,-26
2022-12-27T07:57:15.850Z,-25
2022-12-27T07:58:22.156Z,-25
2022-12-27T07:59:28.395Z,-25
2022-12-27T08:00:34.644Z,-25
2022-12-27T08:01:41.001Z,-25
2022-12-27T08:02:47.370Z,-25
2022-12-27T08:03:53.523Z,-25
2022-12-27T08:04:59.812Z,-25
2022-12-27T08:06:06.075Z,-25
2022-12-27T08:07:12.444Z,-24
2022-12-27T08:08:18.698Z,-25
2022-12-27T08:09:24.920Z,-25
2022-12-27T08:10:30.175Z,-27
2022-12-27T08:11:36.544Z,-25
2022-12-27T08:12:42.677Z,-23
2022-12-27T08:13:48.933Z,-25
2022-12-27T08:14:55.329Z,-24
2022-12-27T08:16:01.510Z,-23
2022-12-27T08:17:07.815Z,-23
2022-12-27T08:18:13.228Z,-24
2022-12-27T08:19:18.489Z,-24
2022-12-27T08:20:24.607Z,-23
2022-12-27T08:21:30.962Z,-23
2022-12-27T08:22:36.172Z,-24
2022-12-27T08:23:41.546Z,-23
2022-12-27T08:24:47.844Z,-23
2022-12-27T08:25:53.999Z,-23
2022-12-27T08:27:00.295Z,-23
2022-12-27T08:28:06.645Z,-25
2022-12-27T08:29:12.825Z,-23
2022-12-27T08:30:19.113Z,-24
2022-12-27T08:31:25.421Z,-23
2022-12-27T08:32:31.700Z,-24
2022-12-27T08:33:37.993Z,-23
2022-12-27T08:34:44.236Z,-22
2022-12-27T08:35:50.521Z,-24
2022-12-27T08:36:56.768Z,-24
2022-12-27T08:38:02.035Z,-23
2022-12-27T08:39:08.284Z,-23
2022-12-27T08:40:14.563Z,-22
2022-12-27T08:41:20.832Z,-24
2022-12-27T08:42:27.105Z,-23
2022-12-27T08:43:33.385Z,-23
2022-12-27T08:44:39.722Z,-23
2022-12-27T08:45:45.035Z,-23
2022-12-27T08:46:50.243Z,-23
2022-12-27T08:47:55.536Z,-24
2022-12-27T08:49:00.839Z,-24
2022-12-27T08:50:07.146Z,-23
2022-12-27T08:51:13.373Z,-23
2022-12-27T08:52:19.774Z,-23
2022-12-27T08:53:25.920Z,-23
2022-12-27T08:54:32.245Z,-23
2022-12-27T08:55:38.524Z,-24
2022-12-27T08:56:44.740Z,-24
2022-12-27T08:57:51.075Z,-22
2022-12-27T08:58:57.299Z,-22
2022-12-27T09:00:03.542Z,-23
2022-12-27T09:01:09.949Z,-22
2022-12-27T09:02:16.089Z,-22
2022-12-27T09:03:21.429Z,-24
2022-12-27T09:04:27.669Z,-22
2022-12-27T09:05:33.920Z,-22
2022-12-27T09:06:40.195Z,-23
2022-12-27T09:07:46.463Z,-23
2022-12-27T09:08:52.747Z,-23
2022-12-27T09:09:59.041Z,-22
2022-12-27T09:11:04.307Z,-23
2022-12-27T09:12:09.615Z,-24
2022-12-27T09:13:14.910Z,-23
2022-12-27T09:14:20.300Z,-21
2022-12-27T09:15:26.499Z,-23
2022-12-27T09:16:32.730Z,-22
2022-12-27T09:17:39.083Z,-22
2022-12-27T09:18:45.279Z,-21
2022-12-27T09:19:51.654Z,-22
2022-12-27T09:20:57.815Z,-21
2022-12-27T09:22:04.097Z,-21
2022-12-27T09:23:10.364Z,-21
2022-12-27T09:24:16.629Z,-20
2022-12-27T09:25:22.908Z,-21
2022-12-27T09:26:29.290Z,-21
2022-12-27T09:27:35.476Z,-22
2022-12-27T09:28:40.750Z,-21
2022-12-27T09:29:47.009Z,-21
2022-12-27T09:30:53.284Z,-22
2022-12-27T09:31:59.608Z,-21
2022-12-27T09:33:05.876Z,-21
2022-12-27T09:34:12.118Z,-21
2022-12-27T09:35:18.389Z,-21
2022-12-27T09:36:23.676Z,-21
2022-12-27T09:37:28.954Z,-21
2022-12-27T09:38:34.261Z,-21
2022-12-27T09:39:39.545Z,-21
2022-12-27T09:40:45.835Z,-20
2022-12-27T09:41:52.101Z,-20
2022-12-27T09:42:58.378Z,-20
2022-12-27T09:44:04.727Z,-20
2022-12-27T09:45:10.905Z,-19
2022-12-27T09:46:17.184Z,-21
2022-12-27T09:47:23.462Z,-21
2022-12-27T09:48:29.723Z,-20
2022-12-27T09:49:35.984Z,-20
2022-12-27T09:50:42.263Z,-20
2022-12-27T09:51:48.581Z,-21
2022-12-27T09:52:54.802Z,-21
2022-12-27T09:54:00.173Z,-22
2022-12-27T09:55:06.385Z,-21
2022-12-27T09:56:12.633Z,-20
2022-12-27T09:57:18.965Z,-20
2022-12-27T09:58:25.198Z,-20
2022-12-27T09:59:31.509Z,-21
2022-12-27T10:00:37.790Z,-19
2022-12-27T10:01:43.184Z,-20
2022-12-27T10:02:48.343Z,-21
2022-12-27T10:03:54.682Z,-20
2022-12-27T10:05:00.883Z,-20
2022-12-27T10:06:07.304Z,-20
2022-12-27T10:07:13.562Z,-20
2022-12-27T10:08:19.869Z,-20
2022-12-27T10:09:26.055Z,-20
2022-12-27T10:10:32.274Z,-19
2022-12-27T10:11:38.607Z,-18
2022-12-27T10:12:44.937Z,-21
2022-12-27T10:13:51.142Z,-18
2022-12-27T10:14:57.306Z,-20
2022-12-27T10:16:03.671Z,-19
2022-12-27T10:17:09.027Z,-20
2022-12-27T10:18:15.294Z,-21
2022-12-27T10:19:21.545Z,-19
2022-12-27T10:20:27.734Z,-19
2022-12-27T10:21:34.036Z,-20
2022-12-27T10:22:40.414Z,-19
2022-12-27T10:23:45.614Z,-20
2022-12-27T10:24:50.977Z,-20
2022-12-27T10:25:56.252Z,-19
2022-12-27T10:27:01.443Z,-19
2022-12-27T10:28:06.759Z,-20
2022-12-27T10:29:12.027Z,-19
2022-12-27T10:30:17.334Z,-21
2022-12-27T10:31:23.612Z,-18
2022-12-27T10:32:29.838Z,-20
2022-12-27T10:33:36.184Z,-20
2022-12-27T10:34:42.473Z,-18
2022-12-27T10:35:48.764Z,-19
2022-12-27T10:36:55.036Z,-20
2022-12-27T10:38:01.214Z,-20
2022-12-27T10:39:07.573Z,-20
2022-12-27T10:40:13.731Z,-19
2022-12-27T10:41:20.009Z,-19
2022-12-27T10:42:26.354Z,-19
2022-12-27T10:43:32.571Z,-20
2022-12-27T10:44:37.976Z,-19
2022-12-27T10:45:44.133Z,-18
2022-12-27T10:46:50.432Z,-18
2022-12-27T10:47:56.680Z,-18
2022-12-27T10:49:02.949Z,-18
2022-12-27T10:50:09.256Z,-19
2022-12-27T10:51:15.475Z,-19
2022-12-27T10:52:20.810Z,-18
2022-12-27T10:53:26.068Z,-18
2022-12-27T10:54:32.371Z,-19
2022-12-27T10:55:38.722Z,-20
2022-12-27T10:56:45.040Z,-19
2022-12-27T10:57:51.255Z,-19
2022-12-27T10:58:57.431Z,-18
2022-12-27T11:00:03.769Z,-18
2022-12-27T11:01:09.969Z,-18
2022-12-27T11:02:16.407Z,-18
2022-12-27T11:03:22.523Z,-18
2022-12-27T11:04:28.798Z,-18
2022-12-27T11:05:35.181Z,-18
2022-12-27T11:06:41.373Z,-18
2022-12-27T11:07:46.730Z,-18
2022-12-27T11:08:52.883Z,-18
2022-12-27T11:09:59.172Z,-18
2022-12-27T11:11:05.437Z,-18
2022-12-27T11:12:11.714Z,-18
2022-12-27T11:13:18.110Z,-16
2022-12-27T11:14:24.301Z,-18
2022-12-27T11:15:29.624Z,-18
2022-12-27T11:16:34.863Z,-18
2022-12-27T11:17:40.183Z,-19
2022-12-27T11:18:45.464Z,-18
2022-12-27T11:19:51.703Z,-18
2022-12-27T11:20:58.052Z,-18
2022-12-27T11:22:04.290Z,-18
2022-12-27T11:23:10.512Z,-18
2022-12-27T11:24:16.784Z,-18
2022-12-27T11:25:23.174Z,-18
2022-12-27T11:26:29.380Z,-18
2022-12-27T11:27:35.721Z,-17
2022-12-27T11:28:42.008Z,-17
2022-12-27T11:29:48.250Z,-18
2022-12-27T11:30:54.496Z,-18
2022-12-27T11:32:00.687Z,-18
2022-12-27T11:33:06.961Z,-19
2022-12-27T11:34:12.317Z,-17
2022-12-27T11:35:18.519Z,-18
2022-12-27T11:36:24.794Z,-17
2022-12-27T11:37:31.169Z,-18
2022-12-27T11:38:37.457Z,-17
2022-12-27T11:39:43.614Z,-18
2022-12-27T11:40:48.906Z,-17
2022-12-27T11:41:54.254Z,-17
2022-12-27T11:43:00.492Z,-17
2022-12-27T11:44:06.873Z,-18
2022-12-27T11:45:12.151Z,-17
2022-12-27T11:46:17.494Z,-16
2022-12-27T11:47:23.630Z,-18
2022-12-27T11:48:29.873Z,-18
2022-12-27T11:49:36.221Z,-16
2022-12-27T11:50:42.436Z,-17
2022-12-27T11:51:48.762Z,-17
2022-12-27T11:52:55.020Z,-17
2022-12-27T11:55:07.596Z,-17
2022-12-27T11:56:13.776Z,-18
2022-12-27T11:57:20.179Z,-17
2022-12-27T11:58:26.366Z,-16
2022-12-27T11:59:32.677Z,-15
2022-12-27T12:00:37.889Z,-17
2022-12-27T12:01:44.188Z,-17
2022-12-27T12:02:50.448Z,-18
2022-12-27T12:03:56.711Z,-17
2022-12-27T12:05:02.976Z,-16
2022-12-27T12:06:09.260Z,-15
2022-12-27T12:07:15.523Z,-15
2022-12-27T12:08:21.798Z,-16
2022-12-27T12:09:28.123Z,-16
2022-12-27T12:10:34.340Z,-17
2022-12-27T12:11:40.697Z,-15
2022-12-27T12:12:46.913Z,-16
2022-12-27T12:13:53.149Z,-17
2022-12-27T12:14:58.436Z,-16
2022-12-27T12:16:04.829Z,-16
2022-12-27T12:17:10.985Z,-16
2022-12-27T12:18:17.320Z,-17
2022-12-27T12:19:23.532Z,-16
2022-12-27T12:20:29.874Z,-16
2022-12-27T12:21:36.251Z,-16
2022-12-27T12:22:42.465Z,-16
2022-12-27T12:23:48.713Z,-17
2022-12-27T12:24:54.908Z,-16
2022-12-27T12:26:00.194Z,-16
2022-12-27T12:27:05.474Z,-15
2022-12-27T12:28:11.743Z,-17
2022-12-27T12:29:18.137Z,-16
2022-12-27T12:30:23.335Z,-16
2022-12-27T12:31:28.604Z,-16
2022-12-27T12:32:34.980Z,-15
2022-12-27T12:33:41.299Z,-16
2022-12-27T12:34:47.428Z,-16
2022-12-27T12:35:53.753Z,-17
2022-12-27T12:36:59.997Z,-19
2022-12-27T12:38:06.289Z,-17
2022-12-27T12:39:12.623Z,-17
2022-12-27T12:40:18.784Z,-16
2022-12-27T12:41:25.055Z,-16
2022-12-27T12:42:31.389Z,-17
2022-12-27T12:43:37.609Z,-17
2022-12-27T12:44:43.876Z,-16
2022-12-27T12:45:49.231Z,-16
2022-12-27T12:46:55.502Z,-17
2022-12-27T12:48:01.699Z,-16
2022-12-27T12:49:07.975Z,-15
2022-12-27T12:50:14.251Z,-16
2022-12-27T12:51:20.516Z,-18
2022-12-27T12:52:26.794Z,-17
2022-12-27T12:53:32.147Z,-17
2022-12-27T12:54:37.377Z,-17
2022-12-27T12:55:43.645Z,-17
2022-12-27T12:56:48.981Z,-16
2022-12-27T12:57:54.279Z,-17
2022-12-27T12:59:00.507Z,-17
2022-12-27T13:00:06.925Z,-18
2022-12-27T13:01:13.069Z,-16
2022-12-27T13:02:19.365Z,-18
2022-12-27T13:03:25.602Z,-18
2022-12-27T13:04:31.897Z,-18
2022-12-27T13:05:38.158Z,-17
2022-12-27T13:06:44.417Z,-17
2022-12-27T13:07:50.691Z,-17
2022-12-27T13:08:56.962Z,-16
2022-12-27T13:10:03.228Z,-16
2022-12-27T13:11:09.566Z,-16
2022-12-27T13:12:14.843Z,-17
2022-12-27T13:13:21.074Z,-16
2022-12-27T13:14:27.425Z,-18
2022-12-27T13:15:33.649Z,-18
2022-12-27T13:16:39.933Z,-17
2022-12-27T13:17:46.209Z,-16
2022-12-27T13:18:52.440Z,-18
2022-12-27T13:19:58.709Z,-17
2022-12-27T13:21:04.962Z,-17
2022-12-27T13:22:11.245Z,-17
2022-12-27T13:23:17.518Z,-18
2022-12-27T13:24:23.791Z,-18
2022-12-27T13:25:30.069Z,-18
2022-12-27T13:26:35.347Z,-17
2022-12-27T13:27:41.630Z,-17
2022-12-27T13:28:47.896Z,-18
2022-12-27T13:29:54.161Z,-17
2022-12-27T13:31:00.437Z,-17
2022-12-27T13:32:06.701Z,-17
2022-12-27T13:33:12.980Z,-15
2022-12-27T13:34:19.264Z,-18
2022-12-27T13:35:25.554Z,-18
2022-12-27T13:36:31.797Z,-18
2022-12-27T13:37:38.067Z,-17
2022-12-27T13:38:44.340Z,-18
2022-12-27T13:39:50.634Z,-18
2022-12-27T13:40:55.900Z,-18
2022-12-27T13:42:02.172Z,-18
2022-12-27T13:43:08.474Z,-18
2022-12-27T13:44:14.716Z,-18
2022-12-27T13:45:21.046Z,-18
2022-12-27T13:46:27.257Z,-17
2022-12-27T13:47:33.533Z,-18
2022-12-27T13:48:39.801Z,-18
2022-12-27T13:49:46.082Z,-17
2022-12-27T13:50:52.347Z,-17
2022-12-27T13:51:58.625Z,-18
2022-12-27T13:53:04.891Z,-18
2022-12-27T13:54:11.179Z,-18
2022-12-27T13:55:16.459Z,-18
2022-12-27T13:56:22.750Z,-18
2022-12-27T13:57:28.021Z,-18
2022-12-27T13:58:33.332Z,-18
2022-12-27T13:59:38.604Z,-18
2022-12-27T14:00:44.885Z,-17
2022-12-27T14:01:50.203Z,-18
2022-12-27T14:02:56.448Z,-17
2022-12-27T14:04:02.713Z,-18
2022-12-27T14:05:08.024Z,-19
2022-12-27T14:06:14.284Z,-18
2022-12-27T14:07:20.556Z,-19
2022-12-27T14:08:26.827Z,-18
2022-12-27T14:09:33.096Z,-18
2022-12-27T14:10:39.371Z,-18
2022-12-27T14:11:45.638Z,-17
2022-12-27T14:12:51.911Z,-18
2022-12-27T14:13:58.199Z,-18
2022-12-27T14:15:04.463Z,-18
2022-12-27T14:16:10.728Z,-18
2022-12-27T14:17:17.030Z,-19
2022-12-27T14:18:23.335Z,-18
2022-12-27T14:19:28.565Z,-18
2022-12-27T14:20:34.829Z,-19
2022-12-27T14:21:41.127Z,-18
2022-12-27T14:22:47.378Z,-18
2022-12-27T14:23:53.650Z,-17
2022-12-27T14:24:59.923Z,-18
2022-12-27T14:26:06.210Z,-18
2022-12-27T14:27:12.496Z,-18
2022-12-27T14:28:18.731Z,-18
2022-12-27T14:29:25.012Z,-18
2022-12-27T14:30:31.287Z,-17
2022-12-27T14:31:37.559Z,-17
2022-12-27T14:32:43.828Z,-18
2022-12-27T14:33:49.120Z,-20
2022-12-27T14:34:55.392Z,-18
2022-12-27T14:36:01.655Z,-18
2022-12-27T14:37:07.990Z,-19
2022-12-27T14:38:14.200Z,-18
2022-12-27T14:39:20.492Z,-18
2022-12-27T14:40:26.756Z,-19
2022-12-27T14:41:33.019Z,-19
2022-12-27T14:42:39.380Z,-18
2022-12-27T14:43:45.661Z,-19
2022-12-27T14:44:51.838Z,-19
2022-12-27T14:45:58.163Z,-21
2022-12-27T14:47:04.374Z,-20
2022-12-27T14:48:09.668Z,-20
2022-12-27T14:49:15.930Z,-19
2022-12-27T14:50:22.211Z,-18
2022-12-27T14:51:28.481Z,-19
2022-12-27T14:52:34.756Z,-20
2022-12-27T14:53:41.027Z,-19
2022-12-27T14:54:47.297Z,-20
2022-12-27T14:55:53.622Z,-19
2022-12-27T14:56:59.843Z,-18
2022-12-27T14:58:06.116Z,-19
2022-12-27T14:59:12.397Z,-21
2022-12-27T15:00:18.670Z,-21
2022-12-27T15:01:24.941Z,-21
2022-12-27T15:02:30.214Z,-20
2022-12-27T15:03:36.498Z,-21
2022-12-27T15:04:42.760Z,-21
2022-12-27T15:05:49.037Z,-20
2022-12-27T15:06:55.311Z,-20
2022-12-27T15:08:01.589Z,-20
2022-12-27T15:09:07.909Z,-21
2022-12-27T15:10:14.132Z,-20
2022-12-27T15:11:20.433Z,-21